createdAt,value
2019-03-25T00:01:53.403Z,66.84
2019-03-25T00:04:23.437Z,66.39
2019-03-25T00:06:53.411Z,67.15
2019-03-25T00:09:23.673Z,67.14
2019-03-25T00:11:54.169Z,67.14
2019-03-25T00:14:24.465Z,67.81
2019-03-25T00:16:54.444Z,67.51
2019-03-25T00:19:24.400Z,66.84
2019-03-25T00:21:54.480Z,66.74
2019-03-25T00:24:24.527Z,67.23
2019-03-25T00:26:54.706Z,67.23
2019-03-25T00:29:25.237Z,66.33
2019-03-25T00:31:55.278Z,66.71
2019-03-25T00:34:25.312Z,66.71
2019-03-25T00:36:55.336Z,67.10
2019-03-25T00:39:25.490Z,67.10
2019-03-25T00:41:55.671Z,67.15
2019-03-25T00:44:25.595Z,67.35
2019-03-25T00:46:55.976Z,67.37
2019-03-25T00:49:26.207Z,67.37
2019-03-25T00:51:56.116Z,66.96
2019-03-25T00:54:26.232Z,68.12
2019-03-25T00:56:56.167Z,68.12
2019-03-25T00:59:26.305Z,67.10
2019-03-25T01:01:56.417Z,67.10
2019-03-25T01:04:26.457Z,67.83
2019-03-25T01:06:56.647Z,67.94
2019-03-25T01:09:26.707Z,67.75
2019-03-25T01:11:56.776Z,67.75
2019-03-25T01:14:26.890Z,67.89
2019-03-25T01:16:56.848Z,68.54
2019-03-25T01:19:27.024Z,68.54
2019-03-25T01:21:57.090Z,68.09
2019-03-25T01:24:27.280Z,68.40
2019-03-25T01:26:57.319Z,68.94
2019-03-25T01:29:27.328Z,68.60
2019-03-25T01:31:57.652Z,68.99
2019-03-25T01:34:27.756Z,68.99
2019-03-25T01:36:57.772Z,69.25
2019-03-25T01:39:27.805Z,69.25
2019-03-25T01:41:57.831Z,68.93
2019-03-25T01:44:27.856Z,68.93
2019-03-25T01:46:57.856Z,69.28
2019-03-25T01:49:27.886Z,69.28
2019-03-25T01:51:57.996Z,69.50
2019-03-25T01:54:27.948Z,69.40
2019-03-25T01:56:58.016Z,69.67
2019-03-25T01:59:27.930Z,69.67
2019-03-25T02:01:57.917Z,70.06
2019-03-25T02:04:27.941Z,70.15
2019-03-25T02:06:59.551Z,70.28
2019-03-25T02:09:29.466Z,69.86
2019-03-25T02:11:59.819Z,70.31
2019-03-25T02:14:29.896Z,70.49
2019-03-25T02:16:59.955Z,70.60
2019-03-25T02:19:29.972Z,70.36
2019-03-25T02:21:59.918Z,70.75
2019-03-25T02:24:29.964Z,70.61
2019-03-25T02:27:00.188Z,70.94
2019-03-25T02:29:30.292Z,70.59
2019-03-25T02:32:00.203Z,70.78
2019-03-25T02:34:30.163Z,70.88
2019-03-25T02:37:00.238Z,70.94
2019-03-25T02:39:30.294Z,70.76
2019-03-25T02:42:00.297Z,70.60
2019-03-25T02:44:30.362Z,70.85
2019-03-25T02:47:00.320Z,70.51
2019-03-25T02:49:30.251Z,70.85
2019-03-25T02:52:00.266Z,70.88
2019-03-25T02:54:30.376Z,70.72
2019-03-25T02:57:00.416Z,71.26
2019-03-25T02:59:30.349Z,70.92
2019-03-25T03:02:00.358Z,70.94
2019-03-25T03:04:30.519Z,70.91
2019-03-25T03:07:00.482Z,70.79
2019-03-25T03:09:30.496Z,70.70
2019-03-25T03:12:00.723Z,71.18
2019-03-25T03:14:30.655Z,70.27
2019-03-25T03:17:00.666Z,70.33
2019-03-25T03:19:30.908Z,70.63
2019-03-25T03:22:00.942Z,70.59
2019-03-25T03:24:30.898Z,70.31
2019-03-25T03:27:01.037Z,70.29
2019-03-25T03:29:31.138Z,69.11
2019-03-25T03:32:01.206Z,68.91
2019-03-25T03:34:31.375Z,69.08
2019-03-25T03:37:01.453Z,69.62
2019-03-25T03:39:31.646Z,68.46
2019-03-25T03:42:02.075Z,67.88
2019-03-25T03:44:32.375Z,67.99
2019-03-25T03:47:02.789Z,68.37
2019-03-25T03:49:32.727Z,68.45
2019-03-25T03:52:02.974Z,67.79
2019-03-25T03:54:33.523Z,68.08
2019-03-25T03:57:03.843Z,67.91
2019-03-25T03:59:34.126Z,67.67
2019-03-25T04:02:04.150Z,68.12
2019-03-25T04:04:34.159Z,67.44
2019-03-25T04:07:04.124Z,68.51
2019-03-25T04:09:34.085Z,68.27
2019-03-25T04:12:04.561Z,67.94
2019-03-25T04:14:34.563Z,68.54
2019-03-25T04:17:04.524Z,67.91
2019-03-25T04:19:34.519Z,68.48
2019-03-25T04:22:04.501Z,68.41
2019-03-25T04:24:34.584Z,67.90
2019-03-25T04:27:05.303Z,67.75
2019-03-25T04:29:35.251Z,67.40
2019-03-25T04:32:06.279Z,67.19
2019-03-25T04:34:36.488Z,67.37
2019-03-25T04:37:06.614Z,67.46
2019-03-25T04:39:36.567Z,67.67
2019-03-25T04:42:06.553Z,66.94
2019-03-25T04:44:36.505Z,65.99
2019-03-25T04:47:06.636Z,66.02
2019-03-25T04:49:36.688Z,65.34
2019-03-25T04:52:06.851Z,65.49
2019-03-25T04:54:36.957Z,65.34
2019-03-25T04:57:07.015Z,66.01
2019-03-25T04:59:37.075Z,65.58
2019-03-25T05:02:07.128Z,65.77
2019-03-25T05:04:37.221Z,65.77
2019-03-25T05:07:07.256Z,64.87
2019-03-25T05:09:37.262Z,64.71
2019-03-25T05:12:07.212Z,64.44
2019-03-25T05:14:37.242Z,64.99
2019-03-25T05:17:07.292Z,64.30
2019-03-25T05:19:37.265Z,63.70
2019-03-25T05:22:07.301Z,63.64
2019-03-25T05:24:37.894Z,63.75
2019-03-25T05:27:08.192Z,63.53
2019-03-25T05:29:38.252Z,63.50
2019-03-25T05:32:08.171Z,63.28
2019-03-25T05:34:38.284Z,63.15
2019-03-25T05:37:08.487Z,63.20
2019-03-25T05:39:38.516Z,62.74
2019-03-25T05:42:08.550Z,62.80
2019-03-25T05:44:38.934Z,62.99
2019-03-25T05:47:08.840Z,62.89
2019-03-25T05:49:38.772Z,62.58
2019-03-25T05:52:08.825Z,62.71
2019-03-25T05:54:38.805Z,62.95
2019-03-25T05:57:08.916Z,62.74
2019-03-25T05:59:39.039Z,62.83
2019-03-25T06:02:09.199Z,62.46
2019-03-25T06:04:39.131Z,62.33
2019-03-25T06:07:09.497Z,62.37
2019-03-25T06:09:39.527Z,61.80
2019-03-25T06:12:09.757Z,61.25
2019-03-25T06:14:40.129Z,61.73
2019-03-25T06:17:10.097Z,61.59
2019-03-25T06:19:40.179Z,61.70
2019-03-25T06:22:10.203Z,61.31
2019-03-25T06:24:40.281Z,61.56
2019-03-25T06:27:14.502Z,60.91
2019-03-25T06:29:41.945Z,61.05
2019-03-25T06:32:12.130Z,60.90
2019-03-25T06:34:42.095Z,61.29
2019-03-25T06:37:12.173Z,60.81
2019-03-25T06:39:42.101Z,60.77
2019-03-25T06:42:12.313Z,60.34
2019-03-25T06:44:42.468Z,60.58
2019-03-25T06:47:12.546Z,60.03
2019-03-25T06:49:42.508Z,59.97
2019-03-25T06:52:12.498Z,59.80
2019-03-25T06:54:42.639Z,59.91
2019-03-25T06:57:12.751Z,59.83
2019-03-25T06:59:42.908Z,59.24
2019-03-25T07:02:13.072Z,58.51
2019-03-25T07:04:42.994Z,59.01
2019-03-25T07:07:13.228Z,58.64
2019-03-25T07:09:43.162Z,58.22
2019-03-25T07:12:13.469Z,57.65
2019-03-25T07:14:43.660Z,57.76
2019-03-25T07:17:13.666Z,57.77
2019-03-25T07:19:43.813Z,57.56
2019-03-25T07:22:13.824Z,56.73
2019-03-25T07:24:43.746Z,56.65
2019-03-25T07:27:13.850Z,56.82
2019-03-25T07:29:43.807Z,57.13
2019-03-25T07:32:13.786Z,56.28
2019-03-25T07:34:43.726Z,56.19
2019-03-25T07:37:13.721Z,55.93
2019-03-25T07:39:43.676Z,55.65
2019-03-25T07:42:13.725Z,54.42
2019-03-25T07:44:43.774Z,54.46
2019-03-25T07:47:13.750Z,53.74
2019-03-25T07:49:43.808Z,53.66
2019-03-25T07:52:14.176Z,54.17
2019-03-25T07:54:44.189Z,53.38
2019-03-25T07:57:14.078Z,52.79
2019-03-25T07:59:44.133Z,52.81
2019-03-25T08:02:15.338Z,53.82
2019-03-25T08:04:45.368Z,53.69
2019-03-25T08:07:15.904Z,53.85
2019-03-25T08:09:45.894Z,54.31
2019-03-25T08:12:16.040Z,54.21
2019-03-25T08:14:46.162Z,54.01
2019-03-25T08:17:16.267Z,53.78
2019-03-25T08:19:46.226Z,53.99
2019-03-25T08:22:16.305Z,54.24
2019-03-25T08:24:46.208Z,54.51
2019-03-25T08:27:16.149Z,54.87
2019-03-25T08:29:46.059Z,54.90
2019-03-25T08:32:16.803Z,54.26
2019-03-25T08:34:47.907Z,54.35
2019-03-25T08:37:17.830Z,54.86
2019-03-25T08:39:47.758Z,57.10
2019-03-25T08:42:18.009Z,58.53
2019-03-25T08:44:48.047Z,59.44
2019-03-25T08:47:18.540Z,60.76
2019-03-25T08:49:48.511Z,61.53
2019-03-25T08:52:18.579Z,61.25
2019-03-25T08:54:48.564Z,59.36
2019-03-25T08:57:18.586Z,60.62
2019-03-25T08:59:48.618Z,62.63
2019-03-25T09:02:19.842Z,62.27
2019-03-25T09:04:49.897Z,62.17
2019-03-25T09:07:19.805Z,61.70
2019-03-25T09:09:49.843Z,62.43
2019-03-25T09:12:19.835Z,64.11
2019-03-25T09:14:49.871Z,63.99
2019-03-25T09:17:19.958Z,63.85
2019-03-25T09:19:50.185Z,63.69
2019-03-25T09:22:20.115Z,64.32
2019-03-25T09:24:50.043Z,64.37
2019-03-25T09:27:19.981Z,63.66
2019-03-25T09:29:50.146Z,63.67
2019-03-25T09:32:20.179Z,63.74
2019-03-25T09:34:50.195Z,62.86
2019-03-25T09:37:21.055Z,62.28
2019-03-25T09:39:51.145Z,61.97
2019-03-25T09:42:21.471Z,61.75
2019-03-25T09:44:51.513Z,61.53
2019-03-25T09:47:21.750Z,61.02
2019-03-25T09:49:51.810Z,61.27
2019-03-25T09:52:21.951Z,60.54
2019-03-25T09:54:52.127Z,60.06
2019-03-25T09:57:22.193Z,60.34
2019-03-25T09:59:52.223Z,60.94
2019-03-25T10:02:22.163Z,62.17
2019-03-25T10:04:52.341Z,63.77
2019-03-25T10:07:25.153Z,63.66
2019-03-25T10:09:55.165Z,63.30
2019-03-25T10:12:25.286Z,65.55
2019-03-25T10:14:55.233Z,65.11
2019-03-25T10:17:25.329Z,65.84
2019-03-25T10:19:55.249Z,65.62
2019-03-25T10:22:25.366Z,67.02
2019-03-25T10:24:55.489Z,67.46
2019-03-25T10:27:25.492Z,68.88
2019-03-25T10:29:55.544Z,70.32
2019-03-25T10:32:25.526Z,69.21
2019-03-25T10:34:55.563Z,71.19
2019-03-25T10:37:26.091Z,74.64
2019-03-25T10:39:57.113Z,74.97
2019-03-25T10:42:27.385Z,74.88
2019-03-25T10:44:57.441Z,74.46
2019-03-25T10:47:27.485Z,75.00
2019-03-25T10:49:57.596Z,73.28
2019-03-25T10:52:27.559Z,72.57
2019-03-25T10:57:27.566Z,72.78
2019-03-25T10:59:57.548Z,71.17
2019-03-25T11:02:27.920Z,72.05
2019-03-25T11:04:57.866Z,71.64
2019-03-25T11:07:29.457Z,71.89
2019-03-25T11:09:59.589Z,71.82
2019-03-25T11:12:29.517Z,71.82
2019-03-25T11:14:59.691Z,69.84
2019-03-25T11:17:29.758Z,71.30
2019-03-25T11:19:59.708Z,71.19
2019-03-25T11:22:30.212Z,70.57
2019-03-25T11:25:00.333Z,69.47
2019-03-25T11:27:30.427Z,69.25
2019-03-25T11:30:00.370Z,68.12
2019-03-25T11:32:30.383Z,65.64
2019-03-25T11:35:00.474Z,65.40
2019-03-25T11:37:30.778Z,66.10
2019-03-25T11:40:00.695Z,66.39
2019-03-25T11:42:30.813Z,66.18
2019-03-25T11:45:00.763Z,66.55
2019-03-25T11:47:30.857Z,65.10
2019-03-25T11:50:00.830Z,64.70
2019-03-25T11:52:30.888Z,64.73
2019-03-25T11:55:00.951Z,63.17
2019-03-25T11:57:31.430Z,62.60
2019-03-25T12:00:01.557Z,63.18
2019-03-25T12:02:31.525Z,64.05
2019-03-25T12:05:11.758Z,62.99
2019-03-25T12:07:42.166Z,59.52
2019-03-25T12:10:12.512Z,59.67
2019-03-25T12:12:42.692Z,60.43
2019-03-25T12:15:12.921Z,58.29
2019-03-25T12:17:42.861Z,62.73
2019-03-25T12:20:13.319Z,62.73
2019-03-25T12:22:43.229Z,66.84
2019-03-25T12:25:13.218Z,74.26
2019-03-25T12:27:43.158Z,79.18
2019-03-25T12:30:13.567Z,82.29
2019-03-25T12:32:43.968Z,84.06
2019-03-25T12:35:14.100Z,84.98
2019-03-25T12:37:44.101Z,86.22
2019-03-25T12:40:14.108Z,86.23
2019-03-25T12:42:44.092Z,86.59
2019-03-25T12:45:15.024Z,87.27
2019-03-25T12:47:45.025Z,87.56
2019-03-25T12:50:15.816Z,87.93
2019-03-25T12:52:46.934Z,88.13
2019-03-25T12:55:17.110Z,85.68
2019-03-25T12:57:47.046Z,85.35
2019-03-25T13:00:20.996Z,84.29
2019-03-25T13:02:51.161Z,76.35
2019-03-25T13:05:21.187Z,68.27
2019-03-25T13:07:51.187Z,66.55
2019-03-25T13:10:21.235Z,60.74
2019-03-25T13:12:51.239Z,64.36
2019-03-25T13:15:21.387Z,64.36
2019-03-25T13:17:51.294Z,59.10
2019-03-25T13:20:22.775Z,57.54
2019-03-25T13:22:52.969Z,58.94
2019-03-25T13:25:22.993Z,54.63
2019-03-25T13:27:53.013Z,57.96
2019-03-25T13:30:23.065Z,60.11
2019-03-25T13:32:52.984Z,61.37
2019-03-25T13:35:23.011Z,63.82
2019-03-25T13:37:53.136Z,66.31
2019-03-25T13:40:23.568Z,68.06
2019-03-25T13:42:53.590Z,68.00
2019-03-25T13:45:23.720Z,65.24
2019-03-25T13:47:53.866Z,62.96
2019-03-25T13:50:24.317Z,60.05
2019-03-25T13:52:54.434Z,55.11
2019-03-25T13:55:26.703Z,53.42
2019-03-25T13:57:56.369Z,49.93
2019-03-25T14:00:44.470Z,49.27
2019-03-25T14:03:14.383Z,49.00
2019-03-25T14:05:44.853Z,50.39
2019-03-25T14:08:15.066Z,48.95
2019-03-25T14:10:45.098Z,51.84
2019-03-25T14:13:15.069Z,48.67
2019-03-25T14:15:45.017Z,50.78
2019-03-25T14:18:15.193Z,52.45
2019-03-25T14:20:45.120Z,55.64
2019-03-25T14:23:15.304Z,63.30
2019-03-25T14:25:45.932Z,68.56
2019-03-25T14:28:17.368Z,70.82
2019-03-25T14:30:48.247Z,66.47
2019-03-25T14:33:18.316Z,67.24
2019-03-25T14:35:48.575Z,68.40
2019-03-25T14:38:18.721Z,70.13
2019-03-25T14:40:48.635Z,71.83
2019-03-25T14:43:21.644Z,72.81
2019-03-25T14:45:52.415Z,73.22
2019-03-25T14:48:23.339Z,73.59
2019-03-25T14:50:53.874Z,72.75
2019-03-25T14:53:24.307Z,72.98
2019-03-25T14:55:54.236Z,72.71
2019-03-25T14:58:24.150Z,73.47
2019-03-25T15:00:54.280Z,70.71
2019-03-25T15:03:24.186Z,70.37
2019-03-25T15:05:54.311Z,69.49
2019-03-25T15:08:24.434Z,67.62
2019-03-25T15:10:54.468Z,67.93
2019-03-25T15:13:24.663Z,68.42
2019-03-25T15:15:54.766Z,68.41
2019-03-25T15:18:24.727Z,68.00
2019-03-25T15:20:54.796Z,68.71
2019-03-25T15:23:24.751Z,69.95
2019-03-25T15:25:55.030Z,67.79
2019-03-25T15:28:25.408Z,67.98
2019-03-25T15:30:55.393Z,67.20
2019-03-25T15:33:25.370Z,65.92
2019-03-25T15:35:55.571Z,64.67
2019-03-25T15:38:26.458Z,65.54
2019-03-25T15:40:56.429Z,68.09
2019-03-25T15:43:26.680Z,68.90
2019-03-25T15:45:57.021Z,67.25
2019-03-25T15:48:27.477Z,66.75
2019-03-25T15:50:57.431Z,65.80
2019-03-25T15:53:28.788Z,64.22
2019-03-25T15:55:58.835Z,64.73
2019-03-25T15:58:28.870Z,66.67
2019-03-25T16:00:58.860Z,66.25
2019-03-25T16:03:28.891Z,65.63
2019-03-25T16:05:59.411Z,65.12
2019-03-25T16:08:29.414Z,65.89
2019-03-25T16:10:59.470Z,65.90
2019-03-25T16:13:29.582Z,65.71
2019-03-25T16:15:59.702Z,65.68
2019-03-25T16:18:41.140Z,66.51
2019-03-25T16:21:11.783Z,67.68
2019-03-25T16:23:41.840Z,68.66
2019-03-25T16:26:11.768Z,68.53
2019-03-25T16:28:41.699Z,68.27
2019-03-25T16:31:11.821Z,68.15
2019-03-25T16:33:41.774Z,67.00
2019-03-25T16:36:11.885Z,67.47
2019-03-25T16:38:41.862Z,67.15
2019-03-25T16:41:12.012Z,66.85
2019-03-25T16:43:42.053Z,66.61
2019-03-25T16:46:12.116Z,66.44
2019-03-25T16:48:42.078Z,66.61
2019-03-25T16:51:12.065Z,67.16
2019-03-25T16:53:42.405Z,66.87
2019-03-25T16:56:12.504Z,66.09
2019-03-25T16:58:42.578Z,66.78
2019-03-25T17:01:12.496Z,66.81
2019-03-25T17:03:42.713Z,66.70
2019-03-25T17:06:12.898Z,66.58
2019-03-25T17:08:42.985Z,65.66
2019-03-25T17:11:13.109Z,66.37
2019-03-25T17:13:43.109Z,66.40
2019-03-25T17:16:13.258Z,65.90
2019-03-25T17:18:43.350Z,66.12
2019-03-25T17:21:13.289Z,66.78
2019-03-25T17:23:43.301Z,67.19
2019-03-25T17:26:13.421Z,66.87
2019-03-25T17:28:43.367Z,66.78
2019-03-25T17:31:20.818Z,66.41
2019-03-25T17:33:45.513Z,66.94
2019-03-25T17:36:15.433Z,67.32
2019-03-25T17:38:45.581Z,67.01
2019-03-25T17:41:15.669Z,67.29
2019-03-25T17:43:45.729Z,67.35
2019-03-25T17:46:16.032Z,67.11
2019-03-25T17:48:46.230Z,67.75
2019-03-25T17:51:18.132Z,68.15
2019-03-25T17:53:48.047Z,67.57
2019-03-25T17:56:18.152Z,69.12
2019-03-25T17:58:48.313Z,69.19
2019-03-25T18:01:19.495Z,69.63
2019-03-25T18:03:49.592Z,69.40
2019-03-25T18:06:19.827Z,69.35
2019-03-25T18:08:49.772Z,69.22
2019-03-25T18:11:19.765Z,69.09
2019-03-25T18:13:50.007Z,68.83
2019-03-25T18:16:20.004Z,68.37
2019-03-25T18:18:50.036Z,69.20
2019-03-25T18:21:20.079Z,69.04
2019-03-25T18:23:50.102Z,68.47
2019-03-25T18:26:20.653Z,67.96
2019-03-25T18:28:50.606Z,68.17
2019-03-25T18:31:20.655Z,68.60
2019-03-25T18:33:50.598Z,69.74
2019-03-25T18:36:20.611Z,69.58
2019-03-25T18:38:50.690Z,69.75
2019-03-25T18:41:20.718Z,69.95
2019-03-25T18:43:50.724Z,70.23
2019-03-25T18:46:20.834Z,70.46
2019-03-25T18:48:50.858Z,70.19
2019-03-25T18:51:20.901Z,70.03
2019-03-25T18:53:50.960Z,69.90
2019-03-25T18:56:21.003Z,69.90
2019-03-25T18:58:51.144Z,69.55
2019-03-25T19:01:21.361Z,69.28
2019-03-25T19:03:51.420Z,69.72
2019-03-25T19:06:21.400Z,69.98
2019-03-25T19:08:52.006Z,70.51
2019-03-25T19:11:30.736Z,70.38
2019-03-25T19:13:54.654Z,70.48
2019-03-25T19:16:24.778Z,70.84
2019-03-25T19:18:55.000Z,71.95
2019-03-25T19:21:24.967Z,72.80
2019-03-25T19:23:54.858Z,74.12
2019-03-25T19:26:24.963Z,75.02
2019-03-25T19:28:54.891Z,74.45
2019-03-25T19:31:24.978Z,76.49
2019-03-25T19:33:55.123Z,74.72
2019-03-25T19:36:25.419Z,75.05
2019-03-25T19:38:55.590Z,75.16
2019-03-25T19:41:32.212Z,74.05
2019-03-25T19:43:57.233Z,73.80
2019-03-25T19:46:27.232Z,73.79
2019-03-25T19:48:57.199Z,74.36
2019-03-25T19:51:27.216Z,73.91
2019-03-25T19:53:57.295Z,73.75
2019-03-25T19:56:27.241Z,74.00
2019-03-25T19:58:57.240Z,73.59
2019-03-25T20:01:27.237Z,72.92
2019-03-25T20:03:57.240Z,73.03
2019-03-25T20:06:27.173Z,73.12
2019-03-25T20:08:57.252Z,73.90
2019-03-25T20:11:27.312Z,74.69
2019-03-25T20:13:57.494Z,74.09
2019-03-25T20:16:27.541Z,73.86
2019-03-25T20:18:57.850Z,73.69
2019-03-25T20:21:28.190Z,73.80
2019-03-25T20:23:58.218Z,73.39
2019-03-25T20:26:28.218Z,73.87
2019-03-25T20:28:58.213Z,72.71
2019-03-25T20:31:28.140Z,71.41
2019-03-25T20:34:10.309Z,72.02
2019-03-25T20:36:30.138Z,71.14
2019-03-25T20:39:00.169Z,71.33
2019-03-25T20:41:30.336Z,71.24
2019-03-25T20:44:00.480Z,71.02
2019-03-25T20:46:30.508Z,71.00
2019-03-25T20:49:00.678Z,70.90
2019-03-25T20:51:30.914Z,70.47
2019-03-25T20:54:00.907Z,71.05
2019-03-25T20:56:30.916Z,71.04
2019-03-25T20:59:00.921Z,71.42
2019-03-25T21:01:30.861Z,71.33
2019-03-25T21:04:01.187Z,71.76
2019-03-25T21:06:31.099Z,71.15
2019-03-25T21:09:01.232Z,71.48
2019-03-25T21:11:31.789Z,71.15
2019-03-25T21:14:01.858Z,71.66
2019-03-25T21:16:31.786Z,71.50
2019-03-25T21:19:02.037Z,71.62
2019-03-25T21:21:32.092Z,72.09
2019-03-25T21:24:02.145Z,72.13
2019-03-25T21:26:32.150Z,71.90
2019-03-25T21:29:02.326Z,72.55
2019-03-25T21:31:32.446Z,73.09
2019-03-25T21:34:03.073Z,73.05
2019-03-25T21:36:33.207Z,73.52
2019-03-25T21:39:03.793Z,74.08
2019-03-25T21:41:33.885Z,74.84
2019-03-25T21:44:04.105Z,75.11
2019-03-25T21:46:34.410Z,75.47
2019-03-25T21:49:04.624Z,75.04
2019-03-25T21:51:34.618Z,75.02
2019-03-25T21:54:04.896Z,75.08
2019-03-25T21:56:34.812Z,75.59
2019-03-25T21:59:04.894Z,75.78
2019-03-25T22:01:35.087Z,76.53
2019-03-25T22:04:05.116Z,76.48
2019-03-25T22:06:35.355Z,76.76
2019-03-25T22:09:07.795Z,77.08
2019-03-25T22:11:37.953Z,77.36
2019-03-25T22:14:08.203Z,77.62
2019-03-25T22:16:38.406Z,77.66
2019-03-25T22:19:08.463Z,77.51
2019-03-25T22:21:38.437Z,77.87
2019-03-25T22:24:08.558Z,77.68
2019-03-25T22:26:38.791Z,78.18
2019-03-25T22:29:08.899Z,78.05
2019-03-25T22:31:40.484Z,78.08
2019-03-25T22:34:10.572Z,77.62
2019-03-25T22:36:40.524Z,78.05
2019-03-25T22:39:10.521Z,77.90
2019-03-25T22:41:40.574Z,77.98
2019-03-25T22:44:10.641Z,77.36
2019-03-25T22:46:40.573Z,77.77
2019-03-25T22:49:10.715Z,77.79
2019-03-25T22:51:43.599Z,77.63
2019-03-25T22:54:13.706Z,77.55
2019-03-25T22:56:43.693Z,77.75
2019-03-25T22:59:14.043Z,78.36
2019-03-25T23:01:44.045Z,78.46
2019-03-25T23:04:14.200Z,78.17
2019-03-25T23:06:44.190Z,78.55
2019-03-25T23:09:14.304Z,78.14
2019-03-25T23:11:44.248Z,78.43
2019-03-25T23:14:15.467Z,78.20
2019-03-25T23:16:46.893Z,78.65
2019-03-25T23:19:18.052Z,78.75
2019-03-25T23:21:49.660Z,77.74
2019-03-25T23:24:20.760Z,78.07
2019-03-25T23:26:52.253Z,77.27
2019-03-25T23:29:23.288Z,77.97
2019-03-25T23:31:54.509Z,78.58
2019-03-25T23:34:25.777Z,78.43
2019-03-25T23:36:56.848Z,78.86
2019-03-25T23:39:27.823Z,78.68
2019-03-25T23:41:59.029Z,79.19
2019-03-25T23:44:30.115Z,79.20
2019-03-25T23:47:01.639Z,79.35
2019-03-25T23:49:33.088Z,78.27
2019-03-25T23:52:04.793Z,78.49
2019-03-25T23:54:34.700Z,78.37
2019-03-25T23:57:04.850Z,79.14
2019-03-25T23:59:34.828Z,79.14
